createdAt,value
2023-02-11T00:00:19.055Z,25.20
2023-02-11T00:02:47.926Z,23.48
2023-02-11T00:05:15.408Z,22.30
2023-02-11T00:07:42.282Z,22.88
2023-02-11T00:10:09.502Z,21.02
2023-02-11T00:12:36.885Z,24.20
2023-02-11T00:15:04.880Z,20.48
2023-02-11T00:17:32.466Z,22.25
2023-02-11T00:19:59.205Z,23.38
2023-02-11T00:22:26.059Z,22.33
2023-02-11T00:24:52.882Z,22.10
2023-02-11T00:27:19.602Z,24.75
2023-02-11T00:29:46.401Z,27.60
2023-02-11T00:32:13.208Z,26.90
2023-02-11T00:34:40.207Z,24.65
2023-02-11T00:37:07.117Z,27.00
2023-02-11T00:39:34.031Z,28.58
2023-02-11T00:42:03.409Z,25.85
2023-02-11T00:44:30.188Z,22.10
2023-02-11T00:46:57.051Z,21.17
2023-02-11T00:49:25.311Z,25.20
2023-02-11T00:51:52.128Z,23.48
2023-02-11T00:54:20.190Z,25.30
2023-02-11T00:56:46.952Z,23.50
2023-02-11T00:59:13.665Z,23.25
2023-02-11T01:01:44.121Z,27.47
2023-02-11T01:04:11.088Z,17.27
2023-02-11T01:06:37.887Z,19.20
2023-02-11T01:09:05.536Z,18.35
2023-02-11T01:11:35.333Z,17.42
2023-02-11T01:14:02.275Z,17.77
2023-02-11T01:16:29.077Z,17.83
2023-02-11T01:18:56.179Z,18.02
2023-02-11T01:21:22.959Z,17.33
2023-02-11T01:23:51.203Z,18.85
2023-02-11T01:26:18.044Z,18.30
2023-02-11T01:28:44.957Z,17.63
2023-02-11T01:31:11.912Z,20.60
2023-02-11T01:33:38.989Z,21.08
2023-02-11T01:36:07.714Z,21.45
2023-02-11T01:38:35.134Z,22.20
2023-02-11T01:41:05.646Z,21.23
2023-02-11T01:43:44.234Z,20.17
2023-02-11T01:46:17.447Z,21.15
2023-02-11T01:48:47.831Z,21.40
2023-02-11T01:51:22.311Z,20.97
2023-02-11T01:54:09.253Z,22.20
2023-02-11T01:57:00.379Z,21.77
2023-02-11T01:59:57.553Z,21.77
2023-02-11T02:02:32.753Z,22.23
2023-02-11T02:05:10.227Z,23.03
2023-02-11T02:07:46.181Z,22.65
2023-02-11T02:10:17.499Z,22.42
2023-02-11T02:12:44.277Z,21.67
2023-02-11T02:15:23.486Z,22.45
2023-02-11T02:18:25.495Z,23.63
2023-02-11T02:20:55.148Z,21.10
2023-02-11T02:23:51.915Z,23.40
2023-02-11T02:26:58.808Z,21.75
2023-02-11T02:29:52.024Z,22.67
2023-02-11T02:32:30.847Z,20.90
2023-02-11T02:35:18.903Z,21.88
2023-02-11T02:38:00.554Z,22.23
2023-02-11T02:40:33.202Z,21.05
2023-02-11T02:43:02.100Z,18.67
2023-02-11T02:45:28.940Z,18.10
2023-02-11T02:47:56.028Z,17.77
2023-02-11T02:50:30.366Z,18.90
2023-02-11T02:53:18.197Z,22.00
2023-02-11T02:55:55.319Z,23.80
2023-02-11T02:58:34.113Z,20.67
2023-02-11T03:01:21.931Z,17.55
2023-02-11T03:04:12.228Z,18.90
2023-02-11T03:07:05.538Z,19.63
2023-02-11T03:09:36.436Z,21.85
2023-02-11T03:12:06.286Z,20.70
2023-02-11T03:14:35.759Z,19.83
2023-02-11T03:17:05.433Z,20.13
2023-02-11T03:19:42.558Z,19.73
2023-02-11T03:22:22.013Z,19.50
2023-02-11T03:24:49.159Z,19.10
2023-02-11T03:27:24.696Z,19.15
2023-02-11T03:30:03.599Z,19.23
2023-02-11T03:32:36.615Z,18.52
2023-02-11T03:35:33.181Z,18.50
2023-02-11T03:38:04.512Z,18.00
2023-02-11T03:40:40.093Z,18.77
2023-02-11T03:43:17.316Z,18.23
2023-02-11T03:45:46.031Z,18.15
2023-02-11T03:48:25.048Z,18.70
2023-02-11T03:50:54.049Z,18.90
2023-02-11T03:53:22.670Z,18.92
2023-02-11T03:55:51.404Z,19.52
2023-02-11T03:58:18.473Z,18.73
2023-02-11T04:00:45.322Z,18.13
2023-02-11T04:03:13.480Z,19.57
2023-02-11T04:05:40.748Z,19.60
2023-02-11T04:08:07.718Z,19.60
2023-02-11T04:10:34.760Z,19.15
2023-02-11T04:13:01.559Z,18.08
2023-02-11T04:15:28.270Z,17.60
2023-02-11T04:17:55.011Z,17.33
2023-02-11T04:20:21.941Z,18.00
2023-02-11T04:22:48.766Z,16.45
2023-02-11T04:25:15.556Z,15.02
2023-02-11T04:27:42.290Z,17.23
2023-02-11T04:30:09.807Z,17.38
2023-02-11T04:32:36.564Z,17.10
2023-02-11T04:35:04.205Z,17.00
2023-02-11T04:37:31.107Z,15.20
2023-02-11T04:39:57.901Z,16.23
2023-02-11T04:42:24.998Z,15.65
2023-02-11T04:44:51.693Z,16.40
2023-02-11T04:47:18.709Z,15.57
2023-02-11T04:49:45.581Z,16.65
2023-02-11T04:52:12.355Z,14.27
2023-02-11T04:54:39.400Z,15.30
2023-02-11T04:57:06.317Z,14.05
2023-02-11T04:59:33.150Z,15.05
2023-02-11T05:01:59.998Z,14.32
2023-02-11T05:04:26.912Z,14.37
2023-02-11T05:06:53.770Z,13.95
2023-02-11T05:09:20.569Z,15.07
2023-02-11T05:11:47.598Z,14.55
2023-02-11T05:14:14.515Z,13.60
2023-02-11T05:16:41.445Z,13.33
2023-02-11T05:19:08.407Z,13.68
2023-02-11T05:21:35.324Z,13.82
2023-02-11T05:24:02.174Z,14.23
2023-02-11T05:26:29.003Z,13.35
2023-02-11T05:28:56.409Z,13.60
2023-02-11T05:31:23.178Z,13.07
2023-02-11T05:33:50.020Z,13.02
2023-02-11T05:36:16.961Z,14.32
2023-02-11T05:38:43.886Z,12.52
2023-02-11T05:41:11.375Z,13.93
2023-02-11T05:43:38.220Z,13.85
2023-02-11T05:46:07.023Z,13.73
2023-02-11T05:48:33.967Z,13.02
2023-02-11T05:51:00.813Z,13.15
2023-02-11T05:53:27.607Z,13.60
2023-02-11T05:55:54.336Z,13.60
2023-02-11T05:58:21.110Z,22.88
2023-02-11T06:00:47.916Z,17.77
2023-02-11T06:03:14.736Z,18.45
2023-02-11T06:05:43.561Z,20.30
2023-02-11T06:08:10.632Z,15.95
2023-02-11T06:10:37.487Z,15.75
2023-02-11T06:13:04.377Z,14.60
2023-02-11T06:15:31.270Z,13.65
2023-02-11T06:17:57.942Z,13.37
2023-02-11T06:20:24.814Z,12.35
2023-02-11T06:22:51.577Z,13.35
2023-02-11T06:25:18.339Z,13.18
2023-02-11T06:27:45.155Z,14.25
2023-02-11T06:30:12.282Z,13.87
2023-02-11T06:32:44.402Z,12.20
2023-02-11T06:35:13.276Z,14.40
2023-02-11T06:37:41.409Z,18.08
2023-02-11T06:40:09.030Z,16.60
2023-02-11T06:42:36.293Z,16.57
2023-02-11T06:45:06.018Z,18.13
2023-02-11T06:47:33.098Z,14.75
2023-02-11T06:50:00.333Z,11.70
2023-02-11T06:52:27.264Z,12.23
2023-02-11T06:54:54.189Z,12.37
2023-02-11T06:57:20.998Z,11.35
2023-02-11T06:59:47.817Z,11.85
2023-02-11T07:02:14.595Z,11.73
2023-02-11T07:04:41.489Z,11.25
2023-02-11T07:07:08.419Z,10.20
2023-02-11T07:09:35.217Z,10.10
2023-02-11T07:12:02.013Z,10.60
2023-02-11T07:14:28.776Z,12.77
2023-02-11T07:16:55.700Z,11.98
2023-02-11T07:19:22.471Z,11.37
2023-02-11T07:21:49.310Z,10.93
2023-02-11T07:24:16.268Z,11.52
2023-02-11T07:26:43.210Z,12.30
2023-02-11T07:29:09.993Z,12.82
2023-02-11T07:31:36.869Z,12.07
2023-02-11T07:34:03.753Z,12.38
2023-02-11T07:36:32.161Z,12.10
2023-02-11T07:39:00.061Z,12.23
2023-02-11T07:41:27.356Z,12.30
2023-02-11T07:43:54.577Z,12.43
2023-02-11T07:46:24.458Z,12.90
2023-02-11T07:48:52.227Z,14.25
2023-02-11T07:51:22.145Z,23.60
2023-02-11T07:53:49.641Z,24.60
2023-02-11T07:56:17.828Z,23.80
2023-02-11T07:58:45.022Z,15.43
2023-02-11T08:01:14.434Z,12.57
2023-02-11T08:03:42.884Z,11.30
2023-02-11T08:06:12.308Z,11.23
2023-02-11T08:08:39.680Z,10.27
2023-02-11T08:11:08.823Z,11.13
2023-02-11T08:13:36.319Z,12.20
2023-02-11T08:16:04.277Z,10.40
2023-02-11T08:18:32.019Z,10.23
2023-02-11T08:21:09.799Z,11.57
2023-02-11T08:23:38.376Z,11.52
2023-02-11T08:26:08.241Z,11.32
2023-02-11T08:28:37.275Z,10.55
2023-02-11T08:31:08.905Z,10.85
2023-02-11T08:33:35.953Z,10.82
2023-02-11T08:36:09.328Z,10.10
2023-02-11T08:38:36.157Z,9.85
2023-02-11T08:41:03.004Z,10.70
2023-02-11T08:43:29.755Z,9.93
2023-02-11T08:45:56.585Z,9.77
2023-02-11T08:48:23.434Z,10.43
2023-02-11T08:50:50.446Z,10.23
2023-02-11T08:53:17.175Z,9.73
2023-02-11T08:55:55.156Z,9.07
2023-02-11T08:58:22.693Z,9.20
2023-02-11T09:00:50.506Z,10.32
2023-02-11T09:03:17.674Z,9.27
2023-02-11T09:05:46.131Z,8.70
2023-02-11T09:08:13.833Z,8.40
2023-02-11T09:10:40.610Z,8.98
2023-02-11T09:13:07.778Z,9.30
2023-02-11T09:15:35.239Z,8.85
2023-02-11T09:18:02.587Z,8.80
2023-02-11T09:20:29.566Z,9.68
2023-02-11T09:22:58.777Z,9.98
2023-02-11T09:25:25.808Z,12.82
2023-02-11T09:27:53.822Z,10.43
2023-02-11T09:30:21.441Z,11.30
2023-02-11T09:32:48.319Z,10.25
2023-02-11T09:35:15.208Z,13.57
2023-02-11T09:37:41.899Z,12.38
2023-02-11T09:40:09.413Z,11.65
2023-02-11T09:42:53.790Z,11.32
2023-02-11T09:45:31.221Z,10.65
2023-02-11T09:48:10.496Z,10.38
2023-02-11T09:50:42.615Z,9.70
2023-02-11T09:53:29.749Z,9.95
2023-02-11T09:56:00.356Z,9.55
2023-02-11T09:58:28.991Z,9.80
2023-02-11T10:01:14.601Z,10.00
2023-02-11T10:03:47.162Z,10.07
2023-02-11T10:06:37.671Z,10.68
2023-02-11T10:09:21.539Z,9.50
2023-02-11T10:11:48.227Z,9.18
2023-02-11T10:14:48.894Z,9.30
2023-02-11T10:17:37.548Z,10.35
2023-02-11T10:20:22.371Z,9.15
2023-02-11T10:22:53.676Z,9.90
2023-02-11T10:25:25.367Z,9.50
2023-02-11T10:27:54.839Z,9.02
2023-02-11T10:30:24.846Z,9.50
2023-02-11T10:32:57.230Z,9.10
2023-02-11T10:35:24.456Z,9.90
2023-02-11T10:37:51.204Z,10.50
2023-02-11T10:40:29.749Z,9.10
2023-02-11T10:43:00.699Z,9.30
2023-02-11T10:45:33.302Z,9.57
2023-02-11T10:48:01.804Z,9.18
2023-02-11T10:50:33.505Z,9.52
2023-02-11T10:53:21.101Z,8.68
2023-02-11T10:55:57.588Z,9.27
2023-02-11T10:58:42.860Z,8.27
2023-02-11T11:01:23.745Z,9.05
2023-02-11T11:03:52.859Z,8.18
2023-02-11T11:06:31.786Z,8.32
2023-02-11T11:08:59.360Z,8.70
2023-02-11T11:11:26.772Z,8.20
2023-02-11T11:13:53.575Z,8.00
2023-02-11T11:16:43.402Z,8.77
2023-02-11T11:19:10.194Z,9.38
2023-02-11T11:21:42.876Z,8.52
2023-02-11T11:24:20.946Z,7.95
2023-02-11T11:27:00.902Z,8.55
2023-02-11T11:29:38.392Z,9.27
2023-02-11T11:32:27.258Z,7.80
2023-02-11T11:35:02.733Z,8.07
2023-02-11T11:37:32.320Z,8.85
2023-02-11T11:40:03.666Z,8.38
2023-02-11T11:42:33.033Z,8.50
2023-02-11T11:45:02.761Z,8.43
2023-02-11T11:47:50.930Z,8.75
2023-02-11T11:50:26.555Z,8.57
2023-02-11T11:53:31.043Z,8.52
2023-02-11T11:56:03.566Z,8.10
2023-02-11T11:58:31.544Z,8.85
2023-02-11T12:01:20.026Z,9.43
2023-02-11T12:04:05.911Z,8.57
2023-02-11T12:06:35.438Z,9.20
2023-02-11T12:09:25.911Z,9.68
2023-02-11T12:12:22.155Z,9.45
2023-02-11T12:15:00.940Z,9.00
2023-02-11T12:17:56.145Z,8.57
2023-02-11T12:20:34.809Z,8.63
2023-02-11T12:23:21.854Z,8.52
2023-02-11T12:26:08.301Z,9.15
2023-02-11T12:28:46.905Z,9.43
2023-02-11T12:31:20.156Z,8.75
2023-02-11T12:34:31.849Z,8.20
2023-02-11T12:37:12.182Z,8.50
2023-02-11T12:40:01.438Z,8.40
2023-02-11T12:42:49.622Z,8.75
2023-02-11T12:45:28.267Z,9.88
2023-02-11T12:48:10.336Z,8.80
2023-02-11T12:50:55.332Z,8.25
2023-02-11T12:53:59.420Z,8.57
2023-02-11T12:57:04.504Z,7.60
2023-02-11T12:59:43.288Z,8.80
2023-02-11T13:02:27.382Z,8.25
2023-02-11T13:05:22.250Z,8.70
2023-02-11T13:07:51.868Z,8.63
2023-02-11T13:10:41.475Z,8.13
2023-02-11T13:13:19.894Z,9.27
2023-02-11T13:16:04.370Z,7.30
2023-02-11T13:18:44.106Z,8.77
2023-02-11T13:21:25.710Z,8.00
2023-02-11T13:24:13.316Z,8.52
2023-02-11T13:26:49.689Z,9.52
2023-02-11T13:29:37.998Z,8.32
2023-02-11T13:32:12.090Z,10.00
2023-02-11T13:34:41.697Z,8.70
2023-02-11T13:37:38.372Z,9.77
2023-02-11T13:40:28.596Z,9.68
2023-02-11T13:42:59.166Z,9.75
2023-02-11T13:45:36.925Z,9.23
2023-02-11T13:48:27.401Z,10.02
2023-02-11T13:50:57.897Z,10.48
2023-02-11T13:53:25.668Z,10.27
2023-02-11T13:56:20.466Z,9.50
2023-02-11T13:58:49.196Z,9.82
2023-02-11T14:01:39.022Z,10.50
2023-02-11T14:04:39.059Z,10.30
2023-02-11T14:07:47.660Z,10.57
2023-02-11T14:10:42.208Z,10.15
2023-02-11T14:13:20.810Z,10.50
2023-02-11T14:15:47.620Z,10.50
2023-02-11T14:18:37.200Z,10.73
2023-02-11T14:21:23.078Z,10.23
2023-02-11T14:23:54.363Z,10.65
2023-02-11T14:26:21.162Z,10.50
2023-02-11T14:29:08.195Z,10.35
2023-02-11T14:31:35.148Z,9.63
2023-02-11T14:34:26.702Z,10.57
2023-02-11T14:36:59.337Z,11.23
2023-02-11T14:39:37.463Z,10.70
2023-02-11T14:42:04.605Z,10.13
2023-02-11T14:44:33.404Z,11.52
2023-02-11T14:47:00.525Z,11.93
2023-02-11T14:49:35.134Z,12.07
2023-02-11T14:52:17.158Z,12.70
2023-02-11T14:54:45.023Z,12.82
2023-02-11T14:57:20.730Z,12.38
2023-02-11T15:00:05.592Z,12.10
2023-02-11T15:02:38.184Z,10.45
2023-02-11T15:05:26.832Z,10.95
2023-02-11T15:08:00.255Z,10.57
2023-02-11T15:10:30.655Z,9.80
2023-02-11T15:12:59.894Z,9.57
2023-02-11T15:15:28.039Z,10.63
2023-02-11T15:17:58.533Z,10.35
2023-02-11T15:20:28.373Z,10.45
2023-02-11T15:22:59.891Z,10.35
2023-02-11T15:25:28.160Z,10.65
2023-02-11T15:27:57.686Z,10.68
2023-02-11T15:30:26.531Z,10.00
2023-02-11T15:33:05.472Z,10.57
2023-02-11T15:35:39.805Z,10.32
2023-02-11T15:38:07.383Z,11.18
2023-02-11T15:40:36.849Z,10.82
2023-02-11T15:43:05.048Z,12.40
2023-02-11T15:45:33.814Z,10.70
2023-02-11T15:48:37.630Z,10.43
2023-02-11T15:51:25.275Z,10.13
2023-02-11T15:53:56.941Z,10.10
2023-02-11T15:56:30.793Z,8.75
2023-02-11T15:59:00.167Z,9.93
2023-02-11T16:01:35.932Z,9.75
2023-02-11T16:04:05.457Z,9.27
2023-02-11T16:06:40.625Z,8.68
2023-02-11T16:09:11.019Z,9.65
2023-02-11T16:11:55.633Z,9.50
2023-02-11T16:14:24.370Z,8.68
2023-02-11T16:16:55.189Z,8.45
2023-02-11T16:19:25.606Z,9.35
2023-02-11T16:21:54.617Z,9.65
2023-02-11T16:24:28.011Z,8.55
2023-02-11T16:27:00.576Z,8.52
2023-02-11T16:29:36.506Z,9.45
2023-02-11T16:32:09.813Z,9.13
2023-02-11T16:34:37.382Z,9.30
2023-02-11T16:37:05.645Z,8.90
2023-02-11T16:39:33.097Z,9.25
2023-02-11T16:42:00.711Z,10.02
2023-02-11T16:44:28.462Z,10.68
2023-02-11T16:46:58.611Z,10.38
2023-02-11T16:49:38.230Z,10.88
2023-02-11T16:52:14.407Z,10.57
2023-02-11T16:54:41.538Z,10.48
2023-02-11T16:57:16.840Z,10.35
2023-02-11T16:59:44.643Z,10.82
2023-02-11T17:02:33.168Z,12.25
2023-02-11T17:05:06.424Z,12.48
2023-02-11T17:07:34.167Z,12.15
2023-02-11T17:10:01.215Z,10.23
2023-02-11T17:12:28.799Z,11.23
2023-02-11T17:14:56.347Z,11.10
2023-02-11T17:17:24.810Z,11.63
2023-02-11T17:19:52.457Z,11.68
2023-02-11T17:22:19.796Z,12.55
2023-02-11T17:24:46.699Z,15.45
2023-02-11T17:27:14.144Z,12.88
2023-02-11T17:29:41.122Z,11.38
2023-02-11T17:32:08.525Z,11.55
2023-02-11T17:34:35.903Z,11.85
2023-02-11T17:37:08.928Z,10.60
2023-02-11T17:39:41.040Z,10.88
2023-02-11T17:42:08.851Z,9.70
2023-02-11T17:44:36.049Z,10.32
2023-02-11T17:47:03.544Z,10.65
2023-02-11T17:49:30.363Z,10.25
2023-02-11T17:51:57.762Z,9.98
2023-02-11T17:54:25.096Z,11.07
2023-02-11T17:56:55.212Z,10.18
2023-02-11T17:59:25.274Z,9.88
2023-02-11T18:01:52.025Z,10.23
2023-02-11T18:04:20.303Z,10.40
2023-02-11T18:06:47.414Z,10.77
2023-02-11T18:09:14.244Z,10.38
2023-02-11T18:11:41.239Z,10.00
2023-02-11T18:14:09.027Z,10.52
2023-02-11T18:16:38.691Z,10.43
2023-02-11T18:19:07.485Z,12.48
2023-02-11T18:21:34.247Z,10.80
2023-02-11T18:24:05.992Z,11.82
2023-02-11T18:26:33.541Z,12.43
2023-02-11T18:29:00.578Z,12.25
2023-02-11T18:31:28.031Z,13.40
2023-02-11T18:33:54.865Z,14.52
2023-02-11T18:36:23.067Z,15.02
2023-02-11T18:38:50.091Z,14.75
2023-02-11T18:41:16.945Z,13.27
2023-02-11T18:43:43.614Z,12.80
2023-02-11T18:46:13.276Z,12.95
2023-02-11T18:48:40.788Z,12.70
2023-02-11T18:51:18.775Z,12.25
2023-02-11T18:53:45.763Z,12.30
2023-02-11T18:56:15.330Z,11.77
2023-02-11T18:58:42.399Z,11.13
2023-02-11T19:01:16.697Z,11.45
2023-02-11T19:03:44.951Z,11.70
2023-02-11T19:06:28.610Z,11.40
2023-02-11T19:08:59.752Z,11.57
2023-02-11T19:11:47.012Z,12.05
2023-02-11T19:14:15.466Z,12.10
2023-02-11T19:16:44.529Z,12.10
2023-02-11T19:19:11.473Z,11.85
2023-02-11T19:21:38.216Z,11.15
2023-02-11T19:24:08.741Z,12.25
2023-02-11T19:26:36.906Z,11.73
2023-02-11T19:29:05.105Z,11.70
2023-02-11T19:31:32.414Z,11.52
2023-02-11T19:34:00.218Z,13.27
2023-02-11T19:36:27.798Z,13.82
2023-02-11T19:38:55.057Z,12.73
2023-02-11T19:41:24.874Z,12.38
2023-02-11T19:43:53.044Z,13.15
2023-02-11T19:46:23.705Z,12.27
2023-02-11T19:48:51.364Z,12.15
2023-02-11T19:51:19.123Z,12.00
2023-02-11T19:53:46.205Z,11.32
2023-02-11T19:56:13.946Z,11.93
2023-02-11T19:58:41.658Z,11.82
2023-02-11T20:01:19.965Z,13.10
2023-02-11T20:03:51.122Z,12.52
2023-02-11T20:06:20.903Z,14.55
2023-02-11T20:08:47.613Z,15.98
2023-02-11T20:11:16.224Z,16.13
2023-02-11T20:13:43.801Z,15.73
2023-02-11T20:16:21.954Z,15.25
2023-02-11T20:18:50.009Z,14.60
2023-02-11T20:21:20.393Z,15.32
2023-02-11T20:23:48.665Z,14.50
2023-02-11T20:26:34.995Z,16.20
2023-02-11T20:29:02.535Z,15.80
2023-02-11T20:31:32.878Z,16.60
2023-02-11T20:34:01.149Z,15.88
2023-02-11T20:36:35.678Z,17.02
2023-02-11T20:39:04.893Z,15.25
2023-02-11T20:41:34.922Z,14.82
2023-02-11T20:44:04.762Z,12.20
2023-02-11T20:46:33.211Z,12.38
2023-02-11T20:49:00.749Z,12.43
2023-02-11T20:51:31.281Z,13.07
2023-02-11T20:54:01.608Z,14.05
2023-02-11T20:56:31.790Z,14.00
2023-02-11T20:59:00.052Z,14.23
2023-02-11T21:01:34.380Z,14.07
2023-02-11T21:04:04.134Z,14.25
2023-02-11T21:06:34.213Z,14.38
2023-02-11T21:09:02.429Z,14.63
2023-02-11T21:11:31.135Z,14.57
2023-02-11T21:13:57.982Z,14.63
2023-02-11T21:16:25.544Z,14.50
2023-02-11T21:18:52.605Z,14.57
2023-02-11T21:21:19.850Z,14.23
2023-02-11T21:23:46.705Z,14.68
2023-02-11T21:26:14.070Z,14.98
2023-02-11T21:28:41.262Z,15.00
2023-02-11T21:31:08.585Z,15.10
2023-02-11T21:33:35.562Z,14.95
2023-02-11T21:36:04.781Z,14.52
2023-02-11T21:38:31.606Z,15.27
2023-02-11T21:41:04.073Z,15.20
2023-02-11T21:43:32.720Z,14.95
2023-02-11T21:45:59.964Z,15.65
2023-02-11T21:48:27.731Z,16.98
2023-02-11T21:50:55.543Z,19.17
2023-02-11T21:53:22.616Z,18.90
2023-02-11T21:55:51.333Z,17.13
2023-02-11T21:58:18.294Z,16.90
2023-02-11T22:00:45.184Z,17.83
2023-02-11T22:03:12.528Z,16.35
2023-02-11T22:05:42.022Z,18.77
2023-02-11T22:08:09.153Z,16.75
2023-02-11T22:10:36.053Z,15.75
2023-02-11T22:13:02.835Z,16.63
2023-02-11T22:15:29.791Z,15.75
2023-02-11T22:17:56.691Z,16.45
2023-02-11T22:20:23.747Z,16.67
2023-02-11T22:22:51.020Z,16.25
2023-02-11T22:25:17.981Z,18.40
2023-02-11T22:27:44.794Z,19.60
2023-02-11T22:30:12.172Z,18.65
2023-02-11T22:32:39.057Z,17.15
2023-02-11T22:35:06.364Z,15.93
2023-02-11T22:37:33.262Z,16.75
2023-02-11T22:40:00.104Z,15.48
2023-02-11T22:42:26.894Z,16.80
2023-02-11T22:44:53.566Z,15.68
2023-02-11T22:47:20.353Z,16.67
2023-02-11T22:49:47.206Z,16.95
2023-02-11T22:52:13.976Z,16.05
2023-02-11T22:54:40.732Z,16.33
2023-02-11T22:57:07.555Z,15.73
2023-02-11T22:59:34.304Z,16.35
2023-02-11T23:02:01.196Z,15.65
2023-02-11T23:04:27.976Z,14.70
2023-02-11T23:06:54.777Z,13.85
2023-02-11T23:09:21.617Z,13.68
2023-02-11T23:11:49.434Z,12.25
2023-02-11T23:14:16.195Z,12.13
2023-02-11T23:16:43.009Z,11.77
2023-02-11T23:19:10.718Z,11.10
2023-02-11T23:21:38.957Z,11.27
2023-02-11T23:24:12.432Z,10.50
2023-02-11T23:26:40.287Z,10.48
2023-02-11T23:29:07.487Z,10.70
2023-02-11T23:31:37.968Z,10.13
2023-02-11T23:34:05.783Z,10.63
2023-02-11T23:36:33.177Z,10.50
2023-02-11T23:39:00.016Z,10.50
2023-02-11T23:41:26.939Z,10.85
2023-02-11T23:43:56.045Z,10.93
2023-02-11T23:46:24.670Z,10.13
2023-02-11T23:48:51.759Z,10.90
2023-02-11T23:51:18.889Z,10.25
2023-02-11T23:53:46.259Z,11.63
2023-02-11T23:56:23.311Z,11.10
2023-02-11T23:58:52.374Z,10.88
